createdAt,value
2019-03-04T00:00:52.503Z,8.90
2019-03-04T00:03:21.198Z,8.90
2019-03-04T00:05:49.939Z,8.90
2019-03-04T00:08:18.339Z,8.90
2019-03-04T00:10:46.618Z,8.90
2019-03-04T00:13:14.839Z,8.90
2019-03-04T00:15:43.509Z,9.00
2019-03-04T00:18:12.325Z,8.90
2019-03-04T00:20:40.827Z,8.90
2019-03-04T00:23:09.347Z,8.90
2019-03-04T00:25:37.833Z,9.00
2019-03-04T00:28:06.388Z,9.00
2019-03-04T00:30:34.988Z,9.00
2019-03-04T00:33:03.605Z,9.00
2019-03-04T00:35:32.259Z,9.00
2019-03-04T00:38:00.452Z,9.00
2019-03-04T00:40:29.058Z,9.00
2019-03-04T00:42:57.423Z,9.00
2019-03-04T00:45:26.147Z,9.00
2019-03-04T00:47:54.528Z,9.00
2019-03-04T00:50:22.901Z,9.00
2019-03-04T00:52:51.267Z,9.00
2019-03-04T00:55:19.939Z,8.90
2019-03-04T00:57:48.655Z,9.00
2019-03-04T01:00:20.193Z,9.00
2019-03-04T01:02:48.746Z,9.00
2019-03-04T01:05:17.602Z,9.00
2019-03-04T01:07:46.068Z,9.00
2019-03-04T01:10:15.902Z,8.90
2019-03-04T01:12:44.554Z,8.90
2019-03-04T01:15:16.066Z,8.90
2019-03-04T01:17:44.984Z,8.90
2019-03-04T01:20:15.280Z,8.90
2019-03-04T01:22:44.121Z,8.90
2019-03-04T01:25:15.955Z,8.90
2019-03-04T01:27:44.318Z,8.90
2019-03-04T01:30:21.089Z,8.90
2019-03-04T01:32:50.269Z,8.90
2019-03-04T01:35:18.987Z,8.90
2019-03-04T01:37:47.782Z,8.90
2019-03-04T01:40:18.724Z,8.90
2019-03-04T01:42:47.396Z,9.00
2019-03-04T01:45:16.757Z,9.00
2019-03-04T01:47:45.481Z,9.00
2019-03-04T01:50:15.754Z,9.00
2019-03-04T01:52:45.736Z,9.00
2019-03-04T01:55:16.449Z,9.00
2019-03-04T01:57:44.343Z,8.90
2019-03-04T02:00:17.737Z,9.00
2019-03-04T02:02:46.437Z,9.00
2019-03-04T02:05:15.148Z,9.00
2019-03-04T02:07:44.351Z,9.00
2019-03-04T02:10:15.563Z,9.00
2019-03-04T02:12:45.199Z,9.00
2019-03-04T02:15:15.750Z,9.00
2019-03-04T02:17:44.098Z,9.00
2019-03-04T02:20:14.669Z,9.00
2019-03-04T02:22:43.326Z,9.00
2019-03-04T02:25:14.459Z,9.00
2019-03-04T02:27:50.542Z,9.00
2019-03-04T02:30:22.966Z,9.00
2019-03-04T02:32:51.589Z,9.10
2019-03-04T02:35:20.204Z,9.00
2019-03-04T02:37:48.643Z,9.00
2019-03-04T02:40:17.051Z,9.00
2019-03-04T02:42:45.971Z,9.00
2019-03-04T02:45:16.995Z,9.00
2019-03-04T02:47:46.770Z,9.00
2019-03-04T02:50:15.695Z,9.00
2019-03-04T02:52:47.415Z,9.10
2019-03-04T02:55:16.500Z,9.00
2019-03-04T02:57:44.889Z,9.10
2019-03-04T03:00:15.861Z,9.10
2019-03-04T03:02:44.419Z,9.00
2019-03-04T03:05:13.044Z,9.00
2019-03-04T03:07:41.558Z,9.00
2019-03-04T03:10:10.415Z,9.10
2019-03-04T03:12:38.956Z,9.10
2019-03-04T03:15:07.993Z,9.10
2019-03-04T03:17:36.211Z,9.00
2019-03-04T03:20:05.883Z,9.10
2019-03-04T03:22:34.490Z,9.10
2019-03-04T03:25:02.834Z,9.10
2019-03-04T03:27:31.626Z,9.00
2019-03-04T03:29:59.878Z,9.10
2019-03-04T03:32:28.060Z,9.10
2019-03-04T03:34:56.711Z,9.10
2019-03-04T03:37:25.238Z,9.00
2019-03-04T03:39:53.635Z,9.10
2019-03-04T03:42:22.571Z,9.10
2019-03-04T03:44:50.872Z,9.10
2019-03-04T03:47:19.587Z,9.20
2019-03-04T03:49:47.764Z,9.20
2019-03-04T03:52:16.048Z,9.20
2019-03-04T03:54:44.552Z,9.20
2019-03-04T03:57:13.401Z,9.20
2019-03-04T03:59:41.973Z,9.20
2019-03-04T04:02:10.181Z,9.10
2019-03-04T04:04:38.538Z,9.10
2019-03-04T04:07:06.911Z,9.10
2019-03-04T04:09:35.310Z,9.10
2019-03-04T04:12:03.693Z,9.20
2019-03-04T04:14:32.371Z,9.20
2019-03-04T04:17:02.490Z,9.10
2019-03-04T04:19:30.989Z,9.10
2019-03-04T04:21:59.648Z,9.10
2019-03-04T04:24:28.043Z,9.10
2019-03-04T04:26:56.722Z,9.10
2019-03-04T04:29:25.538Z,9.20
2019-03-04T04:31:54.135Z,9.10
2019-03-04T04:34:22.486Z,9.10
2019-03-04T04:36:50.782Z,9.20
2019-03-04T04:39:19.202Z,9.20
2019-03-04T04:41:47.450Z,9.10
2019-03-04T04:44:16.312Z,9.20
2019-03-04T04:46:55.845Z,9.10
2019-03-04T04:49:30.066Z,9.10
2019-03-04T04:51:59.129Z,9.20
2019-03-04T04:54:27.585Z,9.30
2019-03-04T04:56:55.975Z,9.20
2019-03-04T04:59:32.793Z,9.20
2019-03-04T05:02:01.301Z,9.30
2019-03-04T05:04:29.580Z,9.30
2019-03-04T05:06:58.157Z,9.30
2019-03-04T05:09:26.509Z,9.30
2019-03-04T05:11:54.886Z,9.30
2019-03-04T05:14:23.648Z,9.30
2019-03-04T05:16:51.912Z,9.30
2019-03-04T05:19:20.340Z,9.40
2019-03-04T05:21:49.052Z,9.40
2019-03-04T05:24:17.460Z,9.40
2019-03-04T05:26:45.783Z,9.40
2019-03-04T05:29:14.269Z,9.50
2019-03-04T05:31:42.878Z,9.50
2019-03-04T05:34:11.115Z,9.50
2019-03-04T05:36:39.634Z,9.50
2019-03-04T05:39:07.946Z,9.50
2019-03-04T05:41:37.108Z,9.50
2019-03-04T05:44:05.671Z,9.50
2019-03-04T05:46:34.129Z,9.50
2019-03-04T05:49:03.177Z,9.40
2019-03-04T05:51:32.033Z,9.40
2019-03-04T05:54:02.455Z,9.50
2019-03-04T05:56:30.237Z,9.50
2019-03-04T05:58:58.713Z,9.60
2019-03-04T06:01:32.691Z,9.50
2019-03-04T06:04:04.909Z,9.50
2019-03-04T06:06:58.564Z,9.50
2019-03-04T06:09:27.225Z,9.50
2019-03-04T06:11:55.693Z,9.50
2019-03-04T06:14:24.621Z,9.60
2019-03-04T06:16:52.834Z,9.60
2019-03-04T06:19:21.453Z,9.60
2019-03-04T06:21:50.062Z,9.60
2019-03-04T06:24:18.342Z,9.70
2019-03-04T06:26:46.574Z,9.70
2019-03-04T06:29:15.240Z,9.70
2019-03-04T06:31:43.617Z,9.70
2019-03-04T06:34:11.983Z,9.70
2019-03-04T06:36:40.325Z,9.70
2019-03-04T06:39:08.848Z,9.70
2019-03-04T06:41:37.404Z,9.70
2019-03-04T06:44:06.119Z,9.70
2019-03-04T06:46:34.910Z,9.70
2019-03-04T06:49:03.327Z,9.70
2019-03-04T06:51:43.293Z,9.80
2019-03-04T06:54:58.646Z,9.80
2019-03-04T06:57:34.671Z,9.90
2019-03-04T07:00:29.550Z,9.90
2019-03-04T07:02:59.728Z,9.90
2019-03-04T07:05:49.308Z,9.90
2019-03-04T07:09:05.802Z,10.00
2019-03-04T07:11:34.248Z,10.00
2019-03-04T07:14:02.921Z,10.10
2019-03-04T07:16:32.083Z,10.10
2019-03-04T07:19:04.519Z,10.20
2019-03-04T07:21:33.013Z,10.20
2019-03-04T07:24:01.946Z,10.20
2019-03-04T07:26:30.681Z,10.20
2019-03-04T07:28:59.421Z,10.20
2019-03-04T07:31:28.111Z,10.20
2019-03-04T07:33:56.723Z,10.20
2019-03-04T07:36:25.165Z,10.20
2019-03-04T07:38:59.336Z,10.30
2019-03-04T07:41:33.515Z,10.40
2019-03-04T07:44:02.281Z,10.40
2019-03-04T07:46:31.231Z,10.50
2019-03-04T07:48:59.612Z,10.60
2019-03-04T07:51:28.205Z,10.80
2019-03-04T07:53:56.650Z,11.00
2019-03-04T07:56:25.338Z,11.50
2019-03-04T07:58:53.699Z,11.80
2019-03-04T08:01:22.093Z,12.00
2019-03-04T08:03:50.473Z,12.30
2019-03-04T08:06:19.191Z,12.70
2019-03-04T08:09:42.215Z,14.10
2019-03-04T08:13:16.745Z,15.30
2019-03-04T08:15:48.662Z,16.60
2019-03-04T08:18:17.473Z,17.60
2019-03-04T08:20:46.276Z,18.30
2019-03-04T08:23:15.366Z,18.70
2019-03-04T08:25:43.793Z,18.80
2019-03-04T08:28:14.379Z,18.80
2019-03-04T08:30:42.529Z,19.10
2019-03-04T08:33:11.070Z,19.60
2019-03-04T08:35:39.412Z,19.50
2019-03-04T08:38:07.864Z,20.20
2019-03-04T08:40:36.295Z,20.00
2019-03-04T08:43:05.016Z,19.70
2019-03-04T08:45:33.733Z,19.00
2019-03-04T08:48:02.348Z,19.70
2019-03-04T08:50:30.990Z,20.00
2019-03-04T08:52:59.667Z,19.50
2019-03-04T08:55:28.029Z,19.30
2019-03-04T08:57:56.712Z,19.20
2019-03-04T09:00:27.209Z,20.10
2019-03-04T09:02:55.693Z,21.30
2019-03-04T09:05:24.078Z,20.80
2019-03-04T09:07:52.450Z,20.50
2019-03-04T09:10:26.394Z,20.40
2019-03-04T09:12:54.998Z,20.30
2019-03-04T09:15:24.311Z,21.20
2019-03-04T09:17:52.995Z,21.80
2019-03-04T09:20:22.776Z,22.40
2019-03-04T09:22:53.352Z,22.50
2019-03-04T09:25:33.309Z,22.30
2019-03-04T09:28:01.542Z,22.70
2019-03-04T09:30:30.309Z,22.50
2019-03-04T09:32:58.565Z,22.70
2019-03-04T09:35:27.345Z,23.40
2019-03-04T09:37:55.744Z,23.20
2019-03-04T09:40:25.079Z,23.10
2019-03-04T09:42:53.360Z,23.30
2019-03-04T09:45:21.808Z,23.20
2019-03-04T09:47:50.467Z,22.90
2019-03-04T09:50:19.356Z,23.00
2019-03-04T09:52:48.154Z,22.60
2019-03-04T09:55:16.932Z,22.70
2019-03-04T09:57:45.560Z,23.30
2019-03-04T10:00:32.761Z,23.80
2019-03-04T10:04:06.786Z,24.40
2019-03-04T10:07:21.276Z,24.40
2019-03-04T10:10:49.505Z,25.20
2019-03-04T10:13:59.626Z,24.10
2019-03-04T10:17:16.656Z,23.60
2019-03-04T10:20:34.375Z,24.30
2019-03-04T10:23:45.871Z,24.40
2019-03-04T10:27:19.848Z,24.50
2019-03-04T10:30:17.951Z,24.80
2019-03-04T10:33:31.735Z,23.80
2019-03-04T10:37:12.999Z,23.70
2019-03-04T10:40:05.227Z,24.00
2019-03-04T10:44:01.123Z,22.90
2019-03-04T10:46:56.462Z,22.00
2019-03-04T10:49:30.167Z,21.10
2019-03-04T10:51:58.969Z,20.40
2019-03-04T10:54:27.530Z,19.80
2019-03-04T10:56:56.235Z,18.90
2019-03-04T10:59:24.914Z,18.50
2019-03-04T11:01:53.580Z,18.70
2019-03-04T11:04:22.309Z,18.60
2019-03-04T11:06:50.831Z,18.60
2019-03-04T11:09:19.664Z,18.90
2019-03-04T11:11:48.279Z,19.10
2019-03-04T11:14:16.623Z,19.80
2019-03-04T11:16:45.615Z,20.90
2019-03-04T11:19:14.368Z,21.70
2019-03-04T11:21:42.781Z,22.00
2019-03-04T11:24:13.691Z,22.40
2019-03-04T11:26:43.747Z,22.00
2019-03-04T11:29:13.375Z,22.50
2019-03-04T11:31:41.834Z,22.70
2019-03-04T11:34:10.618Z,22.00
2019-03-04T11:36:39.337Z,21.00
2019-03-04T11:39:22.595Z,20.40
2019-03-04T11:41:51.202Z,19.70
2019-03-04T11:44:19.739Z,18.80
2019-03-04T11:46:48.389Z,18.40
2019-03-04T11:49:17.126Z,18.10
2019-03-04T11:51:46.510Z,18.40
2019-03-04T11:54:15.995Z,18.60
2019-03-04T11:56:47.516Z,18.30
2019-03-04T11:59:16.320Z,17.80
2019-03-04T12:01:48.278Z,17.60
2019-03-04T12:04:17.558Z,17.30
2019-03-04T12:06:46.533Z,17.40
2019-03-04T12:09:15.996Z,17.00
2019-03-04T12:11:44.794Z,16.90
2019-03-04T12:14:13.316Z,16.70
2019-03-04T12:16:41.930Z,16.60
2019-03-04T12:19:10.609Z,16.50
2019-03-04T12:21:39.413Z,16.70
2019-03-04T12:24:08.327Z,16.80
2019-03-04T12:26:37.473Z,17.10
2019-03-04T12:29:06.293Z,17.50
2019-03-04T12:31:39.505Z,17.70
2019-03-04T12:34:10.445Z,18.10
2019-03-04T12:36:39.097Z,18.20
2019-03-04T12:39:10.650Z,18.00
2019-03-04T12:41:39.162Z,17.90
2019-03-04T12:52:28.015Z,17.80
2019-03-04T12:54:57.283Z,17.70
2019-03-04T12:57:25.726Z,17.70
2019-03-04T12:59:54.280Z,17.70
2019-03-04T13:02:23.004Z,17.80
2019-03-04T13:04:52.009Z,17.80
2019-03-04T13:07:20.712Z,17.80
2019-03-04T13:09:49.407Z,17.90
2019-03-04T13:12:18.096Z,17.90
2019-03-04T13:14:47.178Z,17.60
2019-03-04T13:17:15.894Z,17.50
2019-03-04T13:19:44.719Z,17.50
2019-03-04T13:22:13.257Z,17.50
2019-03-04T13:24:42.147Z,17.50
2019-03-04T13:27:10.999Z,17.30
2019-03-04T13:29:39.681Z,17.30
2019-03-04T13:32:08.478Z,17.20
2019-03-04T13:34:36.891Z,17.20
2019-03-04T13:37:05.308Z,17.10
2019-03-04T13:39:34.012Z,17.10
2019-03-04T13:42:02.728Z,17.10
2019-03-04T13:44:31.316Z,17.10
2019-03-04T13:46:59.739Z,17.10
2019-03-04T13:49:28.189Z,17.20
2019-03-04T13:51:57.116Z,17.10
2019-03-04T13:54:25.622Z,16.90
2019-03-04T13:56:54.092Z,16.90
2019-03-04T13:59:22.474Z,16.90
2019-03-04T14:01:53.620Z,16.90
2019-03-04T14:04:22.454Z,16.90
2019-03-04T14:06:50.875Z,17.10
2019-03-04T14:09:20.818Z,17.10
2019-03-04T14:11:50.013Z,17.00
2019-03-04T14:14:18.636Z,16.90
2019-03-04T14:16:47.361Z,16.90
2019-03-04T14:19:15.995Z,16.90
2019-03-04T14:21:44.648Z,16.90
2019-03-04T14:24:13.097Z,16.80
2019-03-04T14:26:41.783Z,16.70
2019-03-04T14:29:10.222Z,16.80
2019-03-04T14:31:39.239Z,16.80
2019-03-04T14:34:08.135Z,16.80
2019-03-04T14:36:37.008Z,16.80
2019-03-04T14:39:12.229Z,16.90
2019-03-04T14:41:41.337Z,17.10
2019-03-04T14:44:10.067Z,17.20
2019-03-04T14:46:39.410Z,17.30
2019-03-04T14:49:08.374Z,17.20
2019-03-04T14:51:37.616Z,17.20
2019-03-04T14:54:06.209Z,17.10
2019-03-04T14:56:34.681Z,17.00
2019-03-04T14:59:10.885Z,16.80
2019-03-04T15:01:33.455Z,16.70
2019-03-04T15:04:01.881Z,16.60
2019-03-04T15:06:30.438Z,16.50
2019-03-04T15:08:58.827Z,16.60
2019-03-04T15:11:27.413Z,16.50
2019-03-04T15:13:56.359Z,16.40
2019-03-04T15:16:25.303Z,16.30
2019-03-04T15:18:54.345Z,16.30
2019-03-04T15:21:22.691Z,16.30
2019-03-04T15:23:51.545Z,16.30
2019-03-04T15:26:20.218Z,16.30
2019-03-04T15:28:48.990Z,16.30
2019-03-04T15:31:17.825Z,16.30
2019-03-04T15:33:46.475Z,16.30
2019-03-04T15:36:15.616Z,16.20
2019-03-04T15:38:44.367Z,16.20
2019-03-04T15:41:13.273Z,16.20
2019-03-04T15:43:43.037Z,16.30
2019-03-04T15:46:11.867Z,16.40
2019-03-04T15:48:40.621Z,16.30
2019-03-04T15:51:09.430Z,16.30
2019-03-04T15:53:38.845Z,16.30
2019-03-04T15:56:07.609Z,16.40
2019-03-04T15:58:36.311Z,16.30
2019-03-04T16:01:07.268Z,16.30
2019-03-04T16:03:36.809Z,16.40
2019-03-04T16:06:05.623Z,16.30
2019-03-04T16:08:34.777Z,16.20
2019-03-04T16:11:04.129Z,16.30
2019-03-04T16:13:32.623Z,16.30
2019-03-04T16:16:01.617Z,16.20
2019-03-04T16:18:30.509Z,16.20
2019-03-04T16:20:59.256Z,16.20
2019-03-04T16:23:27.985Z,16.20
2019-03-04T16:25:57.155Z,16.10
2019-03-04T16:28:28.006Z,16.10
2019-03-04T16:30:57.042Z,16.00
2019-03-04T16:33:26.237Z,16.00
2019-03-04T16:35:55.157Z,15.90
2019-03-04T16:38:24.227Z,15.90
2019-03-04T16:40:53.319Z,15.80
2019-03-04T16:43:22.084Z,15.80
2019-03-04T16:45:50.681Z,15.70
2019-03-04T16:48:19.391Z,15.60
2019-03-04T16:50:48.019Z,15.60
2019-03-04T16:53:17.769Z,15.40
2019-03-04T16:55:46.255Z,15.30
2019-03-04T16:58:14.776Z,15.30
2019-03-04T17:00:44.394Z,15.30
2019-03-04T17:03:13.639Z,15.30
2019-03-04T17:05:42.245Z,15.30
2019-03-04T17:08:10.934Z,15.30
2019-03-04T17:10:39.456Z,15.20
2019-03-04T17:13:08.437Z,15.30
2019-03-04T17:15:37.221Z,15.30
2019-03-04T17:18:05.719Z,15.20
2019-03-04T17:20:34.516Z,15.20
2019-03-04T17:23:04.705Z,15.20
2019-03-04T17:25:33.914Z,15.10
2019-03-04T17:28:02.660Z,15.10
2019-03-04T17:30:31.834Z,15.10
2019-03-04T17:33:00.614Z,15.10
2019-03-04T17:35:29.781Z,15.10
2019-03-04T17:37:58.275Z,15.20
2019-03-04T17:40:26.709Z,15.10
2019-03-04T17:42:55.351Z,15.10
2019-03-04T17:45:24.503Z,15.10
2019-03-04T17:47:53.437Z,15.00
2019-03-04T17:50:32.453Z,15.00
2019-03-04T17:53:01.348Z,15.00
2019-03-04T17:55:30.175Z,15.10
2019-03-04T17:57:58.537Z,15.10
2019-03-04T18:00:27.392Z,15.20
2019-03-04T18:02:56.085Z,15.20
2019-03-04T18:05:24.750Z,15.10
2019-03-04T18:07:53.352Z,15.10
2019-03-04T18:10:22.659Z,15.20
2019-03-04T18:12:53.214Z,15.20
2019-03-04T18:15:21.754Z,15.10
2019-03-04T18:17:50.178Z,15.10
2019-03-04T18:20:19.808Z,15.10
2019-03-04T18:22:48.805Z,15.10
2019-03-04T18:25:26.759Z,15.20
2019-03-04T18:28:02.819Z,15.20
2019-03-04T18:31:03.731Z,15.30
2019-03-04T18:34:03.110Z,15.20
2019-03-04T18:36:51.284Z,15.20
2019-03-04T18:39:57.635Z,15.20
2019-03-04T18:43:36.061Z,15.20
2019-03-04T18:46:58.692Z,15.20
2019-03-04T18:49:27.536Z,15.30
2019-03-04T18:51:56.889Z,15.30
2019-03-04T18:54:25.761Z,15.30
2019-03-04T18:56:54.141Z,15.30
2019-03-04T18:59:22.916Z,15.30
2019-03-04T19:01:51.564Z,15.30
2019-03-04T19:04:19.976Z,15.30
2019-03-04T19:06:48.505Z,15.30
2019-03-04T19:09:18.768Z,15.30
2019-03-04T19:11:47.790Z,15.30
2019-03-04T19:14:17.990Z,15.30
2019-03-04T19:16:46.441Z,15.20
2019-03-04T19:19:14.757Z,15.20
2019-03-04T19:21:43.137Z,15.20
2019-03-04T19:24:11.579Z,15.20
2019-03-04T19:26:40.315Z,15.20
2019-03-04T19:29:10.827Z,15.10
2019-03-04T19:31:39.571Z,15.10
2019-03-04T19:34:08.454Z,15.10
2019-03-04T19:36:36.865Z,15.10
2019-03-04T19:39:07.275Z,15.10
2019-03-04T19:41:36.048Z,15.10
2019-03-04T19:44:04.423Z,15.10
2019-03-04T19:46:33.109Z,15.10
2019-03-04T19:49:01.709Z,15.10
2019-03-04T19:51:30.189Z,15.10
2019-03-04T19:53:58.515Z,15.00
2019-03-04T19:56:26.823Z,15.00
2019-03-04T19:58:55.316Z,14.90
2019-03-04T20:01:24.120Z,15.00
2019-03-04T20:03:52.955Z,15.00
2019-03-04T20:06:21.239Z,15.00
2019-03-04T20:08:50.104Z,14.90
2019-03-04T20:11:19.023Z,14.90
2019-03-04T20:13:47.910Z,14.90
2019-03-04T20:16:16.434Z,14.80
2019-03-04T20:18:45.250Z,14.80
2019-03-04T20:21:13.806Z,14.80
2019-03-04T20:23:42.210Z,14.80
2019-03-04T20:26:10.909Z,14.70
2019-03-04T20:28:39.846Z,14.80
2019-03-04T20:31:09.725Z,14.80
2019-03-04T20:33:37.959Z,14.80
2019-03-04T20:36:06.895Z,14.70
2019-03-04T20:38:40.313Z,14.80
2019-03-04T20:41:09.035Z,14.70
2019-03-04T20:43:37.265Z,14.70
2019-03-04T20:46:05.707Z,14.70
2019-03-04T20:48:34.333Z,14.60
2019-03-04T20:51:03.199Z,14.60
2019-03-04T20:53:31.977Z,14.60
2019-03-04T20:56:00.754Z,14.60
2019-03-04T20:58:29.257Z,14.40
2019-03-04T21:00:58.298Z,14.40
2019-03-04T21:03:34.793Z,14.40
2019-03-04T21:05:59.067Z,14.40
2019-03-04T21:08:28.059Z,14.30
2019-03-04T21:10:57.559Z,14.20
2019-03-04T21:13:35.053Z,14.20
2019-03-04T21:15:56.244Z,14.20
2019-03-04T21:18:25.304Z,14.20
2019-03-04T21:20:54.088Z,14.10
2019-03-04T21:23:23.176Z,14.10
2019-03-04T21:26:26.231Z,14.10
2019-03-04T21:29:30.158Z,14.00
2019-03-04T21:32:21.474Z,14.00
2019-03-04T21:35:52.812Z,14.00
2019-03-04T21:38:26.623Z,13.90
2019-03-04T21:41:46.140Z,13.80
2019-03-04T21:45:32.331Z,13.80
2019-03-04T21:48:18.833Z,13.80
2019-03-04T21:51:38.170Z,13.70
2019-03-04T21:54:04.704Z,13.70
2019-03-04T21:57:38.187Z,13.60
2019-03-04T22:00:13.229Z,13.60
2019-03-04T22:03:16.640Z,13.60
2019-03-04T22:05:50.323Z,13.50
2019-03-04T22:08:15.477Z,13.70
2019-03-04T22:10:44.308Z,13.60
2019-03-04T22:13:13.139Z,13.60
2019-03-04T22:15:41.777Z,13.60
2019-03-04T22:18:10.334Z,13.50
2019-03-04T22:20:39.065Z,13.50
2019-03-04T22:23:07.777Z,13.50
2019-03-04T22:25:36.108Z,13.40
2019-03-04T22:28:04.496Z,13.40
2019-03-04T22:30:32.923Z,13.40
2019-03-04T22:33:01.639Z,13.30
2019-03-04T22:35:29.847Z,13.40
2019-03-04T22:37:58.447Z,13.30
2019-03-04T22:40:26.980Z,13.20
2019-03-04T22:42:55.706Z,13.10
2019-03-04T22:45:24.354Z,13.10
2019-03-04T22:47:52.900Z,13.10
2019-03-04T22:50:21.539Z,13.00
2019-03-04T22:52:50.100Z,12.90
2019-03-04T22:55:23.561Z,12.90
2019-03-04T22:57:51.886Z,12.80
2019-03-04T23:01:35.072Z,12.80
2019-03-04T23:04:21.483Z,12.70
2019-03-04T23:07:03.989Z,12.60
2019-03-04T23:09:38.041Z,12.60
2019-03-04T23:12:18.330Z,12.50
2019-03-04T23:14:48.204Z,12.50
2019-03-04T23:17:16.811Z,12.40
2019-03-04T23:19:45.187Z,12.30
2019-03-04T23:22:13.518Z,12.10
2019-03-04T23:24:41.951Z,12.00
2019-03-04T23:27:10.866Z,11.90
2019-03-04T23:29:39.927Z,11.80
2019-03-04T23:32:08.262Z,11.60
2019-03-04T23:34:36.649Z,11.50
2019-03-04T23:37:04.876Z,11.30
2019-03-04T23:39:33.339Z,11.20
2019-03-04T23:42:01.996Z,11.00
2019-03-04T23:44:30.730Z,11.00
2019-03-04T23:46:59.434Z,10.90
2019-03-04T23:49:27.818Z,10.70
2019-03-04T23:51:56.201Z,10.70
2019-03-04T23:54:24.517Z,10.50
2019-03-04T23:56:52.960Z,10.40
2019-03-04T23:59:21.457Z,10.20
